sensor_id;sensor_type;location;lat;lon;timestamp;temperature;humidity
40289;DHT22;28991;52.028;5.526;2022-07-29T00:02:12;24.50;48.80
40289;DHT22;28991;52.028;5.526;2022-07-29T00:04:37;24.50;48.80
40289;DHT22;28991;52.028;5.526;2022-07-29T00:07:04;24.50;48.80
40289;DHT22;28991;52.028;5.526;2022-07-29T00:09:30;24.40;48.80
40289;DHT22;28991;52.028;5.526;2022-07-29T00:11:59;24.60;48.90
40289;DHT22;28991;52.028;5.526;2022-07-29T00:14:25;24.60;48.90
40289;DHT22;28991;52.028;5.526;2022-07-29T00:16:51;24.60;48.90
40289;DHT22;28991;52.028;5.526;2022-07-29T00:19:16;24.50;48.90
40289;DHT22;28991;52.028;5.526;2022-07-29T00:21:42;24.50;49.40
40289;DHT22;28991;52.028;5.526;2022-07-29T00:24:07;24.50;48.80
40289;DHT22;28991;52.028;5.526;2022-07-29T00:26:33;24.60;48.90
40289;DHT22;28991;52.028;5.526;2022-07-29T00:28:59;24.60;48.90
40289;DHT22;28991;52.028;5.526;2022-07-29T00:31:25;24.60;48.90
40289;DHT22;28991;52.028;5.526;2022-07-29T00:33:51;24.50;48.90
40289;DHT22;28991;52.028;5.526;2022-07-29T00:36:17;24.50;48.80
40289;DHT22;28991;52.028;5.526;2022-07-29T00:38:43;24.60;48.90
40289;DHT22;28991;52.028;5.526;2022-07-29T00:41:11;24.50;48.90
40289;DHT22;28991;52.028;5.526;2022-07-29T00:43:36;24.50;48.90
40289;DHT22;28991;52.028;5.526;2022-07-29T00:46:02;24.50;48.90
40289;DHT22;28991;52.028;5.526;2022-07-29T00:48:28;24.50;48.90
40289;DHT22;28991;52.028;5.526;2022-07-29T00:50:55;24.50;48.90
40289;DHT22;28991;52.028;5.526;2022-07-29T00:53:21;24.50;48.90
40289;DHT22;28991;52.028;5.526;2022-07-29T00:55:47;24.70;49.00
40289;DHT22;28991;52.028;5.526;2022-07-29T00:58:12;24.30;48.80
40289;DHT22;28991;52.028;5.526;2022-07-29T01:00:39;24.60;48.90
40289;DHT22;28991;52.028;5.526;2022-07-29T01:03:06;24.40;48.80
40289;DHT22;28991;52.028;5.526;2022-07-29T01:05:32;24.50;48.90
40289;DHT22;28991;52.028;5.526;2022-07-29T01:07:59;24.50;48.90
40289;DHT22;28991;52.028;5.526;2022-07-29T01:10:25;24.50;48.90
40289;DHT22;28991;52.028;5.526;2022-07-29T01:12:53;24.50;48.90
40289;DHT22;28991;52.028;5.526;2022-07-29T01:15:19;24.50;48.90
40289;DHT22;28991;52.028;5.526;2022-07-29T01:18:00;24.30;48.80
40289;DHT22;28991;52.028;5.526;2022-07-29T01:29:11;24.50;48.90
40289;DHT22;28991;52.028;5.526;2022-07-29T01:31:53;24.50;48.90
40289;DHT22;28991;52.028;5.526;2022-07-29T01:34:41;24.50;48.90
40289;DHT22;28991;52.028;5.526;2022-07-29T01:37:26;24.50;48.90
40289;DHT22;28991;52.028;5.526;2022-07-29T01:39:55;24.50;48.90
40289;DHT22;28991;52.028;5.526;2022-07-29T01:42:32;24.50;48.90
40289;DHT22;28991;52.028;5.526;2022-07-29T01:45:09;24.50;48.90
40289;DHT22;28991;52.028;5.526;2022-07-29T01:48:02;24.50;48.90
40289;DHT22;28991;52.028;5.526;2022-07-29T01:50:33;24.50;48.90
40289;DHT22;28991;52.028;5.526;2022-07-29T01:53:04;24.50;48.90
40289;DHT22;28991;52.028;5.526;2022-07-29T01:55:34;24.50;48.90
40289;DHT22;28991;52.028;5.526;2022-07-29T01:58:01;24.80;49.10
40289;DHT22;28991;52.028;5.526;2022-07-29T02:00:29;24.70;49.00
40289;DHT22;28991;52.028;5.526;2022-07-29T02:02:58;24.50;48.90
40289;DHT22;28991;52.028;5.526;2022-07-29T02:05:26;24.50;48.90
40289;DHT22;28991;52.028;5.526;2022-07-29T02:07:53;24.50;48.90
40289;DHT22;28991;52.028;5.526;2022-07-29T02:10:24;24.80;49.10
40289;DHT22;28991;52.028;5.526;2022-07-29T02:12:50;24.50;48.90
40289;DHT22;28991;52.028;5.526;2022-07-29T02:15:17;24.50;49.00
40289;DHT22;28991;52.028;5.526;2022-07-29T02:17:53;24.50;49.00
40289;DHT22;28991;52.028;5.526;2022-07-29T02:20:22;24.40;48.90
40289;DHT22;28991;52.028;5.526;2022-07-29T02:22:50;24.50;49.00
40289;DHT22;28991;52.028;5.526;2022-07-29T02:25:17;24.50;49.00
40289;DHT22;28991;52.028;5.526;2022-07-29T02:27:43;24.50;48.90
40289;DHT22;28991;52.028;5.526;2022-07-29T02:30:09;24.50;48.90
40289;DHT22;28991;52.028;5.526;2022-07-29T02:32:37;24.50;49.00
40289;DHT22;28991;52.028;5.526;2022-07-29T02:35:07;24.50;49.00
40289;DHT22;28991;52.028;5.526;2022-07-29T02:37:33;24.50;48.90
40289;DHT22;28991;52.028;5.526;2022-07-29T02:40:01;24.40;48.90
40289;DHT22;28991;52.028;5.526;2022-07-29T02:42:28;24.50;49.00
40289;DHT22;28991;52.028;5.526;2022-07-29T02:44:54;24.50;49.00
40289;DHT22;28991;52.028;5.526;2022-07-29T02:47:47;24.50;49.00
40289;DHT22;28991;52.028;5.526;2022-07-29T02:50:16;24.50;49.00
40289;DHT22;28991;52.028;5.526;2022-07-29T02:52:44;24.50;49.00
40289;DHT22;28991;52.028;5.526;2022-07-29T02:55:26;24.40;48.90
40289;DHT22;28991;52.028;5.526;2022-07-29T02:58:05;24.40;48.90
40289;DHT22;28991;52.028;5.526;2022-07-29T03:00:37;24.40;48.90
40289;DHT22;28991;52.028;5.526;2022-07-29T03:03:06;24.50;49.00
40289;DHT22;28991;52.028;5.526;2022-07-29T03:05:32;24.40;48.90
40289;DHT22;28991;52.028;5.526;2022-07-29T03:08:03;24.40;49.00
40289;DHT22;28991;52.028;5.526;2022-07-29T03:10:30;24.50;49.00
40289;DHT22;28991;52.028;5.526;2022-07-29T03:12:56;24.60;49.00
40289;DHT22;28991;52.028;5.526;2022-07-29T03:15:23;24.40;48.90
40289;DHT22;28991;52.028;5.526;2022-07-29T03:17:49;24.50;49.00
40289;DHT22;28991;52.028;5.526;2022-07-29T03:20:15;24.30;48.90
40289;DHT22;28991;52.028;5.526;2022-07-29T03:22:42;24.40;48.90
40289;DHT22;28991;52.028;5.526;2022-07-29T03:25:16;24.50;49.00
40289;DHT22;28991;52.028;5.526;2022-07-29T03:27:42;24.40;49.00
40289;DHT22;28991;52.028;5.526;2022-07-29T03:30:08;24.30;48.90
40289;DHT22;28991;52.028;5.526;2022-07-29T03:32:35;24.50;49.00
40289;DHT22;28991;52.028;5.526;2022-07-29T03:35:01;24.40;48.90
40289;DHT22;28991;52.028;5.526;2022-07-29T03:37:27;24.40;48.90
40289;DHT22;28991;52.028;5.526;2022-07-29T03:39:55;24.40;49.00
40289;DHT22;28991;52.028;5.526;2022-07-29T03:42:28;24.40;48.90
40289;DHT22;28991;52.028;5.526;2022-07-29T03:44:56;24.50;49.00
40289;DHT22;28991;52.028;5.526;2022-07-29T03:47:25;24.40;48.90
40289;DHT22;28991;52.028;5.526;2022-07-29T03:49:55;24.40;48.90
40289;DHT22;28991;52.028;5.526;2022-07-29T03:52:22;24.50;49.00
40289;DHT22;28991;52.028;5.526;2022-07-29T03:54:48;24.60;49.10
40289;DHT22;28991;52.028;5.526;2022-07-29T03:57:15;24.40;49.00
40289;DHT22;28991;52.028;5.526;2022-07-29T03:59:42;24.40;49.00
40289;DHT22;28991;52.028;5.526;2022-07-29T04:02:11;24.50;49.00
40289;DHT22;28991;52.028;5.526;2022-07-29T04:04:37;24.40;49.00
40289;DHT22;28991;52.028;5.526;2022-07-29T04:07:03;24.50;49.00
40289;DHT22;28991;52.028;5.526;2022-07-29T04:09:29;24.40;49.00
40289;DHT22;28991;52.028;5.526;2022-07-29T04:11:55;24.40;49.00
40289;DHT22;28991;52.028;5.526;2022-07-29T04:14:20;24.50;49.00
40289;DHT22;28991;52.028;5.526;2022-07-29T04:16:46;24.40;49.00
40289;DHT22;28991;52.028;5.526;2022-07-29T04:19:12;24.40;49.00
40289;DHT22;28991;52.028;5.526;2022-07-29T04:21:41;24.30;48.90
40289;DHT22;28991;52.028;5.526;2022-07-29T04:24:07;24.40;49.00
40289;DHT22;28991;52.028;5.526;2022-07-29T04:26:33;24.40;49.00
40289;DHT22;28991;52.028;5.526;2022-07-29T04:28:59;24.40;49.00
40289;DHT22;28991;52.028;5.526;2022-07-29T04:31:25;24.40;49.00
40289;DHT22;28991;52.028;5.526;2022-07-29T04:33:50;24.40;49.00
40289;DHT22;28991;52.028;5.526;2022-07-29T04:36:16;24.40;49.00
40289;DHT22;28991;52.028;5.526;2022-07-29T04:38:41;24.50;49.00
40289;DHT22;28991;52.028;5.526;2022-07-29T04:41:07;24.40;49.00
40289;DHT22;28991;52.028;5.526;2022-07-29T04:43:36;24.40;49.00
40289;DHT22;28991;52.028;5.526;2022-07-29T04:46:03;24.30;49.00
40289;DHT22;28991;52.028;5.526;2022-07-29T04:48:29;24.40;49.00
40289;DHT22;28991;52.028;5.526;2022-07-29T04:50:55;24.40;49.00
40289;DHT22;28991;52.028;5.526;2022-07-29T04:53:20;24.60;49.10
40289;DHT22;28991;52.028;5.526;2022-07-29T04:55:46;24.40;49.00
40289;DHT22;28991;52.028;5.526;2022-07-29T04:58:12;24.40;49.60
40289;DHT22;28991;52.028;5.526;2022-07-29T05:00:37;24.40;49.00
40289;DHT22;28991;52.028;5.526;2022-07-29T05:03:04;24.40;49.00
40289;DHT22;28991;52.028;5.526;2022-07-29T05:05:29;24.40;49.00
40289;DHT22;28991;52.028;5.526;2022-07-29T05:07:55;24.40;49.00
40289;DHT22;28991;52.028;5.526;2022-07-29T05:10:21;24.40;49.00
40289;DHT22;28991;52.028;5.526;2022-07-29T05:12:47;24.40;49.00
40289;DHT22;28991;52.028;5.526;2022-07-29T05:15:13;24.50;49.10
40289;DHT22;28991;52.028;5.526;2022-07-29T05:17:38;24.40;49.00
40289;DHT22;28991;52.028;5.526;2022-07-29T05:20:05;24.40;49.00
40289;DHT22;28991;52.028;5.526;2022-07-29T05:22:31;24.40;49.00
40289;DHT22;28991;52.028;5.526;2022-07-29T05:24:56;24.40;49.00
40289;DHT22;28991;52.028;5.526;2022-07-29T05:27:22;24.40;49.00
40289;DHT22;28991;52.028;5.526;2022-07-29T05:29:47;24.30;49.00
40289;DHT22;28991;52.028;5.526;2022-07-29T05:32:13;24.40;49.00
40289;DHT22;28991;52.028;5.526;2022-07-29T05:34:39;24.40;49.00
40289;DHT22;28991;52.028;5.526;2022-07-29T05:37:05;24.30;49.00
40289;DHT22;28991;52.028;5.526;2022-07-29T05:39:30;24.40;49.00
40289;DHT22;28991;52.028;5.526;2022-07-29T05:41:56;24.40;49.00
40289;DHT22;28991;52.028;5.526;2022-07-29T05:44:21;24.40;49.00
40289;DHT22;28991;52.028;5.526;2022-07-29T05:46:47;24.40;49.00
40289;DHT22;28991;52.028;5.526;2022-07-29T05:49:12;24.40;49.00
40289;DHT22;28991;52.028;5.526;2022-07-29T05:51:38;24.70;49.20
40289;DHT22;28991;52.028;5.526;2022-07-29T05:54:03;24.40;49.10
40289;DHT22;28991;52.028;5.526;2022-07-29T05:56:29;24.40;49.00
40289;DHT22;28991;52.028;5.526;2022-07-29T05:58:55;24.40;49.10
40289;DHT22;28991;52.028;5.526;2022-07-29T06:01:20;24.70;49.20
40289;DHT22;28991;52.028;5.526;2022-07-29T06:03:46;24.40;49.00
40289;DHT22;28991;52.028;5.526;2022-07-29T06:06:11;24.70;49.20
40289;DHT22;28991;52.028;5.526;2022-07-29T06:08:37;24.40;49.10
40289;DHT22;28991;52.028;5.526;2022-07-29T06:11:03;24.40;49.00
40289;DHT22;28991;52.028;5.526;2022-07-29T06:13:29;24.40;49.00
40289;DHT22;28991;52.028;5.526;2022-07-29T06:15:58;24.40;49.00
40289;DHT22;28991;52.028;5.526;2022-07-29T06:18:24;24.40;49.00
40289;DHT22;28991;52.028;5.526;2022-07-29T06:20:50;24.40;49.00
40289;DHT22;28991;52.028;5.526;2022-07-29T06:23:17;24.40;49.00
40289;DHT22;28991;52.028;5.526;2022-07-29T06:25:42;24.80;49.20
40289;DHT22;28991;52.028;5.526;2022-07-29T06:28:08;24.40;49.00
40289;DHT22;28991;52.028;5.526;2022-07-29T06:30:34;24.40;49.00
40289;DHT22;28991;52.028;5.526;2022-07-29T06:32:59;24.50;49.10
40289;DHT22;28991;52.028;5.526;2022-07-29T06:35:26;24.40;49.10
40289;DHT22;28991;52.028;5.526;2022-07-29T06:37:52;24.40;49.10
40289;DHT22;28991;52.028;5.526;2022-07-29T06:40:17;24.40;49.10
40289;DHT22;28991;52.028;5.526;2022-07-29T06:43:01;24.40;49.00
40289;DHT22;28991;52.028;5.526;2022-07-29T06:45:27;24.40;49.00
40289;DHT22;28991;52.028;5.526;2022-07-29T06:47:52;24.40;49.00
40289;DHT22;28991;52.028;5.526;2022-07-29T06:50:18;24.40;49.00
40289;DHT22;28991;52.028;5.526;2022-07-29T06:52:44;24.40;49.00
40289;DHT22;28991;52.028;5.526;2022-07-29T06:55:09;24.40;49.00
40289;DHT22;28991;52.028;5.526;2022-07-29T06:57:35;24.40;49.00
40289;DHT22;28991;52.028;5.526;2022-07-29T07:00:01;24.50;49.10
40289;DHT22;28991;52.028;5.526;2022-07-29T07:02:26;24.40;49.00
40289;DHT22;28991;52.028;5.526;2022-07-29T07:04:52;24.40;49.00
40289;DHT22;28991;52.028;5.526;2022-07-29T07:07:17;24.50;49.00
40289;DHT22;28991;52.028;5.526;2022-07-29T07:09:43;24.40;49.00
40289;DHT22;28991;52.028;5.526;2022-07-29T07:12:08;24.40;49.00
40289;DHT22;28991;52.028;5.526;2022-07-29T07:14:34;24.40;49.00
40289;DHT22;28991;52.028;5.526;2022-07-29T07:17:00;24.50;49.00
40289;DHT22;28991;52.028;5.526;2022-07-29T07:19:26;24.40;49.00
40289;DHT22;28991;52.028;5.526;2022-07-29T07:21:52;24.40;48.90
40289;DHT22;28991;52.028;5.526;2022-07-29T07:24:18;24.20;48.80
40289;DHT22;28991;52.028;5.526;2022-07-29T07:26:43;24.40;48.90
40289;DHT22;28991;52.028;5.526;2022-07-29T07:29:09;24.50;49.00
40289;DHT22;28991;52.028;5.526;2022-07-29T07:31:36;24.40;48.90
40289;DHT22;28991;52.028;5.526;2022-07-29T07:34:02;24.40;49.00
40289;DHT22;28991;52.028;5.526;2022-07-29T07:36:27;24.40;49.00
40289;DHT22;28991;52.028;5.526;2022-07-29T07:38:53;24.50;49.00
40289;DHT22;28991;52.028;5.526;2022-07-29T07:41:19;24.40;49.00
40289;DHT22;28991;52.028;5.526;2022-07-29T07:43:45;24.40;48.90
40289;DHT22;28991;52.028;5.526;2022-07-29T07:46:10;24.40;48.90
40289;DHT22;28991;52.028;5.526;2022-07-29T07:48:36;24.40;49.00
40289;DHT22;28991;52.028;5.526;2022-07-29T07:51:02;24.40;49.00
40289;DHT22;28991;52.028;5.526;2022-07-29T07:53:27;24.40;49.00
40289;DHT22;28991;52.028;5.526;2022-07-29T07:55:55;24.40;48.90
40289;DHT22;28991;52.028;5.526;2022-07-29T07:58:20;24.40;49.00
40289;DHT22;28991;52.028;5.526;2022-07-29T08:00:46;24.40;49.00
40289;DHT22;28991;52.028;5.526;2022-07-29T08:03:12;24.60;49.00
40289;DHT22;28991;52.028;5.526;2022-07-29T08:05:39;24.50;48.90
40289;DHT22;28991;52.028;5.526;2022-07-29T08:08:05;24.60;48.90
40289;DHT22;28991;52.028;5.526;2022-07-29T08:10:31;24.60;48.90
40289;DHT22;28991;52.028;5.526;2022-07-29T08:13:15;24.60;48.90
40289;DHT22;28991;52.028;5.526;2022-07-29T08:15:40;24.60;48.80
40289;DHT22;28991;52.028;5.526;2022-07-29T08:18:08;24.70;48.80
40289;DHT22;28991;52.028;5.526;2022-07-29T08:20:34;24.70;48.80
40289;DHT22;28991;52.028;5.526;2022-07-29T08:23:01;24.70;48.80
40289;DHT22;28991;52.028;5.526;2022-07-29T08:25:27;24.70;48.80
40289;DHT22;28991;52.028;5.526;2022-07-29T08:27:53;24.70;48.70
40289;DHT22;28991;52.028;5.526;2022-07-29T08:30:18;24.80;48.80
40289;DHT22;28991;52.028;5.526;2022-07-29T08:32:44;24.80;48.80
40289;DHT22;28991;52.028;5.526;2022-07-29T08:35:09;24.80;48.80
40289;DHT22;28991;52.028;5.526;2022-07-29T08:37:35;24.80;48.80
40289;DHT22;28991;52.028;5.526;2022-07-29T08:40:00;24.90;48.80
40289;DHT22;28991;52.028;5.526;2022-07-29T08:42:26;24.90;48.80
40289;DHT22;28991;52.028;5.526;2022-07-29T08:44:52;25.10;49.10
40289;DHT22;28991;52.028;5.526;2022-07-29T08:47:18;24.90;48.90
40289;DHT22;28991;52.028;5.526;2022-07-29T08:49:44;24.90;48.80
40289;DHT22;28991;52.028;5.526;2022-07-29T08:52:12;25.00;48.90
40289;DHT22;28991;52.028;5.526;2022-07-29T08:54:39;25.00;48.90
40289;DHT22;28991;52.028;5.526;2022-07-29T08:57:08;25.00;48.90
40289;DHT22;28991;52.028;5.526;2022-07-29T08:59:34;25.00;48.90
40289;DHT22;28991;52.028;5.526;2022-07-29T09:02:01;25.30;49.20
40289;DHT22;28991;52.028;5.526;2022-07-29T09:04:30;25.00;48.90
40289;DHT22;28991;52.028;5.526;2022-07-29T09:07:00;25.00;48.90
40289;DHT22;28991;52.028;5.526;2022-07-29T09:09:29;24.90;48.90
40289;DHT22;28991;52.028;5.526;2022-07-29T09:11:54;25.00;48.90
40289;DHT22;28991;52.028;5.526;2022-07-29T09:14:20;24.90;48.80
40289;DHT22;28991;52.028;5.526;2022-07-29T09:16:54;24.90;48.80
40289;DHT22;28991;52.028;5.526;2022-07-29T09:19:28;25.00;48.90
40289;DHT22;28991;52.028;5.526;2022-07-29T09:21:54;24.90;48.80
40289;DHT22;28991;52.028;5.526;2022-07-29T09:24:23;24.90;48.80
40289;DHT22;28991;52.028;5.526;2022-07-29T09:26:49;24.70;48.70
40289;DHT22;28991;52.028;5.526;2022-07-29T09:29:17;24.90;48.90
40289;DHT22;28991;52.028;5.526;2022-07-29T09:31:47;24.90;48.90
40289;DHT22;28991;52.028;5.526;2022-07-29T09:34:16;24.90;49.00
40289;DHT22;28991;52.028;5.526;2022-07-29T09:36:47;24.90;49.00
40289;DHT22;28991;52.028;5.526;2022-07-29T09:39:13;24.80;49.00
40289;DHT22;28991;52.028;5.526;2022-07-29T09:41:52;24.80;49.10
40289;DHT22;28991;52.028;5.526;2022-07-29T09:44:19;24.80;49.10
40289;DHT22;28991;52.028;5.526;2022-07-29T09:47:02;24.80;49.20
40289;DHT22;28991;52.028;5.526;2022-07-29T09:52:16;24.70;49.20
40289;DHT22;28991;52.028;5.526;2022-07-29T09:54:42;24.70;49.20
40289;DHT22;28991;52.028;5.526;2022-07-29T09:57:08;24.70;49.30
40289;DHT22;28991;52.028;5.526;2022-07-29T09:59:38;24.70;49.20
40289;DHT22;28991;52.028;5.526;2022-07-29T10:02:13;24.70;49.30
40289;DHT22;28991;52.028;5.526;2022-07-29T10:04:40;24.70;49.30
40289;DHT22;28991;52.028;5.526;2022-07-29T10:07:06;24.70;49.30
40289;DHT22;28991;52.028;5.526;2022-07-29T10:09:32;24.70;49.30
40289;DHT22;28991;52.028;5.526;2022-07-29T10:12:09;24.70;49.30
40289;DHT22;28991;52.028;5.526;2022-07-29T10:14:35;24.60;49.30
40289;DHT22;28991;52.028;5.526;2022-07-29T10:17:01;24.60;49.30
40289;DHT22;28991;52.028;5.526;2022-07-29T10:19:31;24.60;49.30
40289;DHT22;28991;52.028;5.526;2022-07-29T10:21:57;24.60;49.30
40289;DHT22;28991;52.028;5.526;2022-07-29T10:24:28;24.60;49.30
40289;DHT22;28991;52.028;5.526;2022-07-29T10:26:56;24.60;49.30
40289;DHT22;28991;52.028;5.526;2022-07-29T10:29:23;24.60;49.30
40289;DHT22;28991;52.028;5.526;2022-07-29T10:32:02;24.70;49.40
40289;DHT22;28991;52.028;5.526;2022-07-29T10:35:52;24.60;49.30
40289;DHT22;28991;52.028;5.526;2022-07-29T10:37:56;24.60;49.30
40289;DHT22;28991;52.028;5.526;2022-07-29T10:40:29;24.60;49.30
40289;DHT22;28991;52.028;5.526;2022-07-29T10:43:19;24.60;49.40
40289;DHT22;28991;52.028;5.526;2022-07-29T10:45:48;24.60;49.40
40289;DHT22;28991;52.028;5.526;2022-07-29T10:48:14;24.60;49.30
40289;DHT22;28991;52.028;5.526;2022-07-29T10:53:23;24.60;49.40
40289;DHT22;28991;52.028;5.526;2022-07-29T10:55:50;24.70;49.40
40289;DHT22;28991;52.028;5.526;2022-07-29T10:58:20;24.60;49.40
40289;DHT22;28991;52.028;5.526;2022-07-29T11:00:48;24.60;49.40
40289;DHT22;28991;52.028;5.526;2022-07-29T11:06:12;24.60;49.40
40289;DHT22;28991;52.028;5.526;2022-07-29T11:08:37;24.60;49.40
40289;DHT22;28991;52.028;5.526;2022-07-29T11:13:44;24.60;49.40
40289;DHT22;28991;52.028;5.526;2022-07-29T11:16:14;24.90;49.60
40289;DHT22;28991;52.028;5.526;2022-07-29T11:21:41;24.60;49.40
40289;DHT22;28991;52.028;5.526;2022-07-29T11:24:31;24.60;49.40
40289;DHT22;28991;52.028;5.526;2022-07-29T11:27:15;24.60;49.40
40289;DHT22;28991;52.028;5.526;2022-07-29T11:29:53;24.60;49.40
40289;DHT22;28991;52.028;5.526;2022-07-29T11:32:20;24.60;49.40
40289;DHT22;28991;52.028;5.526;2022-07-29T11:35:10;24.60;49.40
40289;DHT22;28991;52.028;5.526;2022-07-29T11:37:35;24.60;49.40
40289;DHT22;28991;52.028;5.526;2022-07-29T11:45:17;24.60;49.40
40289;DHT22;28991;52.028;5.526;2022-07-29T11:50:14;24.60;49.50
40289;DHT22;28991;52.028;5.526;2022-07-29T11:52:42;24.60;49.50
40289;DHT22;28991;52.028;5.526;2022-07-29T11:55:21;24.60;49.50
40289;DHT22;28991;52.028;5.526;2022-07-29T11:57:48;24.60;49.50
40289;DHT22;28991;52.028;5.526;2022-07-29T12:02:53;24.60;49.50
40289;DHT22;28991;52.028;5.526;2022-07-29T12:05:19;24.60;49.50
40289;DHT22;28991;52.028;5.526;2022-07-29T12:07:46;24.60;49.50
40289;DHT22;28991;52.028;5.526;2022-07-29T12:10:15;24.60;49.50
40289;DHT22;28991;52.028;5.526;2022-07-29T12:12:40;24.60;49.50
40289;DHT22;28991;52.028;5.526;2022-07-29T12:15:15;24.60;49.50
40289;DHT22;28991;52.028;5.526;2022-07-29T12:17:43;24.60;49.50
40289;DHT22;28991;52.028;5.526;2022-07-29T12:20:09;24.60;49.50
40289;DHT22;28991;52.028;5.526;2022-07-29T12:22:37;24.60;49.50
40289;DHT22;28991;52.028;5.526;2022-07-29T12:25:08;24.60;49.50
40289;DHT22;28991;52.028;5.526;2022-07-29T12:27:35;24.60;49.50
40289;DHT22;28991;52.028;5.526;2022-07-29T12:30:10;24.60;49.50
40289;DHT22;28991;52.028;5.526;2022-07-29T12:32:46;24.60;49.50
40289;DHT22;28991;52.028;5.526;2022-07-29T12:35:17;24.60;49.50
40289;DHT22;28991;52.028;5.526;2022-07-29T12:37:46;24.60;49.50
40289;DHT22;28991;52.028;5.526;2022-07-29T12:40:17;24.60;49.50
40289;DHT22;28991;52.028;5.526;2022-07-29T12:43:05;24.60;49.50
40289;DHT22;28991;52.028;5.526;2022-07-29T12:45:31;24.60;49.50
40289;DHT22;28991;52.028;5.526;2022-07-29T12:47:57;24.60;49.50
40289;DHT22;28991;52.028;5.526;2022-07-29T12:50:22;24.40;49.40
40289;DHT22;28991;52.028;5.526;2022-07-29T12:52:48;24.60;49.60
40289;DHT22;28991;52.028;5.526;2022-07-29T12:55:14;24.60;49.50
40289;DHT22;28991;52.028;5.526;2022-07-29T12:57:47;24.60;49.50
40289;DHT22;28991;52.028;5.526;2022-07-29T13:00:14;24.60;49.50
40289;DHT22;28991;52.028;5.526;2022-07-29T13:02:41;24.60;49.50
40289;DHT22;28991;52.028;5.526;2022-07-29T13:05:08;24.60;50.10
40289;DHT22;28991;52.028;5.526;2022-07-29T13:07:35;24.60;49.60
40289;DHT22;28991;52.028;5.526;2022-07-29T13:10:18;24.60;49.60
40289;DHT22;28991;52.028;5.526;2022-07-29T13:13:06;24.60;49.80
40289;DHT22;28991;52.028;5.526;2022-07-29T13:15:34;24.70;49.60
40289;DHT22;28991;52.028;5.526;2022-07-29T13:18:01;24.80;49.60
40289;DHT22;28991;52.028;5.526;2022-07-29T13:20:28;24.60;49.50
40289;DHT22;28991;52.028;5.526;2022-07-29T13:22:59;24.60;49.50
40289;DHT22;28991;52.028;5.526;2022-07-29T13:25:30;24.60;49.60
40289;DHT22;28991;52.028;5.526;2022-07-29T13:27:57;24.60;49.60
40289;DHT22;28991;52.028;5.526;2022-07-29T13:30:23;24.60;49.60
40289;DHT22;28991;52.028;5.526;2022-07-29T13:32:51;24.60;49.60
40289;DHT22;28991;52.028;5.526;2022-07-29T13:35:17;24.60;49.60
40289;DHT22;28991;52.028;5.526;2022-07-29T13:37:43;24.60;49.60
40289;DHT22;28991;52.028;5.526;2022-07-29T13:40:09;24.60;49.60
40289;DHT22;28991;52.028;5.526;2022-07-29T13:42:35;24.60;49.60
40289;DHT22;28991;52.028;5.526;2022-07-29T13:45:01;24.70;49.60
40289;DHT22;28991;52.028;5.526;2022-07-29T13:47:27;24.60;49.60
40289;DHT22;28991;52.028;5.526;2022-07-29T13:49:53;24.70;49.60
40289;DHT22;28991;52.028;5.526;2022-07-29T13:52:19;24.60;49.60
40289;DHT22;28991;52.028;5.526;2022-07-29T13:54:45;24.60;49.60
40289;DHT22;28991;52.028;5.526;2022-07-29T13:57:12;24.60;49.60
40289;DHT22;28991;52.028;5.526;2022-07-29T13:59:38;24.70;49.60
40289;DHT22;28991;52.028;5.526;2022-07-29T14:02:04;24.70;49.60
40289;DHT22;28991;52.028;5.526;2022-07-29T14:04:31;24.60;49.60
40289;DHT22;28991;52.028;5.526;2022-07-29T14:06:56;24.60;49.60
40289;DHT22;28991;52.028;5.526;2022-07-29T14:09:22;24.60;49.60
40289;DHT22;28991;52.028;5.526;2022-07-29T14:11:47;24.70;49.70
40289;DHT22;28991;52.028;5.526;2022-07-29T14:14:15;24.60;49.60
40289;DHT22;28991;52.028;5.526;2022-07-29T14:16:40;24.60;49.60
40289;DHT22;28991;52.028;5.526;2022-07-29T14:19:06;24.60;49.60
40289;DHT22;28991;52.028;5.526;2022-07-29T14:21:32;24.60;49.60
40289;DHT22;28991;52.028;5.526;2022-07-29T14:23:58;24.60;49.60
40289;DHT22;28991;52.028;5.526;2022-07-29T14:26:23;24.70;49.70
40289;DHT22;28991;52.028;5.526;2022-07-29T14:28:49;24.70;49.70
40289;DHT22;28991;52.028;5.526;2022-07-29T14:31:15;24.70;49.70
40289;DHT22;28991;52.028;5.526;2022-07-29T14:33:41;24.60;49.70
40289;DHT22;28991;52.028;5.526;2022-07-29T14:36:06;24.70;49.70
40289;DHT22;28991;52.028;5.526;2022-07-29T14:38:33;24.70;49.70
40289;DHT22;28991;52.028;5.526;2022-07-29T14:40:58;24.70;49.70
40289;DHT22;28991;52.028;5.526;2022-07-29T14:43:24;24.70;49.70
40289;DHT22;28991;52.028;5.526;2022-07-29T14:45:49;24.60;49.60
40289;DHT22;28991;52.028;5.526;2022-07-29T14:48:15;24.70;49.70
40289;DHT22;28991;52.028;5.526;2022-07-29T14:50:40;24.70;49.70
40289;DHT22;28991;52.028;5.526;2022-07-29T14:53:06;24.70;49.70
40289;DHT22;28991;52.028;5.526;2022-07-29T14:55:32;24.70;49.70
40289;DHT22;28991;52.028;5.526;2022-07-29T14:57:57;24.70;49.70
40289;DHT22;28991;52.028;5.526;2022-07-29T15:00:25;24.70;49.70
40289;DHT22;28991;52.028;5.526;2022-07-29T15:02:50;24.70;49.70
40289;DHT22;28991;52.028;5.526;2022-07-29T15:05:16;24.70;49.70
40289;DHT22;28991;52.028;5.526;2022-07-29T15:07:42;24.70;49.70
40289;DHT22;28991;52.028;5.526;2022-07-29T15:10:08;24.70;49.70
40289;DHT22;28991;52.028;5.526;2022-07-29T15:12:33;24.70;49.80
40289;DHT22;28991;52.028;5.526;2022-07-29T15:14:59;24.70;49.70
40289;DHT22;28991;52.028;5.526;2022-07-29T15:17:25;24.70;49.80
40289;DHT22;28991;52.028;5.526;2022-07-29T15:19:51;24.70;49.80
40289;DHT22;28991;52.028;5.526;2022-07-29T15:22:17;24.70;49.70
40289;DHT22;28991;52.028;5.526;2022-07-29T15:24:45;24.60;49.70
40289;DHT22;28991;52.028;5.526;2022-07-29T15:27:10;24.70;49.70
40289;DHT22;28991;52.028;5.526;2022-07-29T15:29:43;24.70;49.70
40289;DHT22;28991;52.028;5.526;2022-07-29T15:32:09;24.70;49.70
40289;DHT22;28991;52.028;5.526;2022-07-29T15:34:35;24.70;49.70
40289;DHT22;28991;52.028;5.526;2022-07-29T15:37:00;24.70;49.80
40289;DHT22;28991;52.028;5.526;2022-07-29T15:39:26;24.70;49.80
40289;DHT22;28991;52.028;5.526;2022-07-29T15:41:52;24.70;49.80
40289;DHT22;28991;52.028;5.526;2022-07-29T15:44:18;24.70;49.80
40289;DHT22;28991;52.028;5.526;2022-07-29T15:46:44;24.70;49.80
40289;DHT22;28991;52.028;5.526;2022-07-29T15:49:33;24.70;49.80
40289;DHT22;28991;52.028;5.526;2022-07-29T15:52:04;24.70;49.80
40289;DHT22;28991;52.028;5.526;2022-07-29T15:54:38;24.70;49.80
40289;DHT22;28991;52.028;5.526;2022-07-29T15:57:04;24.70;49.80
40289;DHT22;28991;52.028;5.526;2022-07-29T15:59:31;24.70;49.80
40289;DHT22;28991;52.028;5.526;2022-07-29T16:01:57;24.70;49.80
40289;DHT22;28991;52.028;5.526;2022-07-29T16:04:23;24.70;49.80
40289;DHT22;28991;52.028;5.526;2022-07-29T16:06:49;24.70;49.80
40289;DHT22;28991;52.028;5.526;2022-07-29T16:09:16;24.80;49.80